createdAt,value
2022-12-19T00:00:15.555Z,139.65
2022-12-19T00:05:22.867Z,162.98
2022-12-19T00:10:29.280Z,132.35
2022-12-19T00:15:36.256Z,117.72
2022-12-19T00:20:43.668Z,124.65
2022-12-19T00:25:48.538Z,148.35
2022-12-19T00:30:53.445Z,144.02
2022-12-19T00:36:03.603Z,128.60
2022-12-19T00:41:12.063Z,137.07
2022-12-19T00:46:17.449Z,158.43
2022-12-19T00:51:26.375Z,168.52
2022-12-19T00:56:33.480Z,211.95
2022-12-19T01:01:46.558Z,175.48
2022-12-19T01:06:54.223Z,201.82
2022-12-19T01:12:15.187Z,180.48
2022-12-19T01:17:19.827Z,195.98
2022-12-19T01:22:27.379Z,172.18
2022-12-19T01:27:32.419Z,141.35
2022-12-19T01:32:37.267Z,143.05
2022-12-19T01:37:44.559Z,149.98
2022-12-19T01:42:49.296Z,119.82
2022-12-19T01:47:55.646Z,132.95
2022-12-19T01:53:03.609Z,114.47
2022-12-19T01:58:08.302Z,101.03
2022-12-19T02:03:14.691Z,98.20
2022-12-19T02:08:22.030Z,100.47
2022-12-19T02:13:26.866Z,101.45
2022-12-19T02:18:35.371Z,113.13
2022-12-19T02:23:54.954Z,104.55
2022-12-19T02:29:15.106Z,111.30
2022-12-19T02:34:24.142Z,91.18
2022-12-19T02:39:33.716Z,91.28
2022-12-19T02:44:40.576Z,98.03
2022-12-19T02:49:47.854Z,94.78
2022-12-19T02:54:54.182Z,85.75
2022-12-19T03:00:05.877Z,97.32
2022-12-19T03:05:16.250Z,96.68
2022-12-19T03:10:23.854Z,85.00
2022-12-19T03:15:29.508Z,84.30
2022-12-19T03:20:42.709Z,92.75
2022-12-19T03:25:48.932Z,91.93
2022-12-19T03:30:54.372Z,91.47
2022-12-19T03:36:03.980Z,82.38
2022-12-19T03:41:09.487Z,83.37
2022-12-19T03:46:16.220Z,89.40
2022-12-19T03:51:25.669Z,90.82
2022-12-19T03:56:34.255Z,93.80
2022-12-19T04:01:39.890Z,85.45
2022-12-19T04:06:48.705Z,86.68
2022-12-19T04:11:56.578Z,81.53
2022-12-19T04:17:07.514Z,74.03
2022-12-19T04:22:16.456Z,75.60
2022-12-19T04:27:21.868Z,70.10
2022-12-19T04:32:28.220Z,75.57
2022-12-19T04:37:38.676Z,76.83
2022-12-19T04:42:43.379Z,69.78
2022-12-19T04:47:48.075Z,72.85
2022-12-19T04:52:57.155Z,62.30
2022-12-19T04:58:02.171Z,69.63
2022-12-19T05:03:07.151Z,57.58
2022-12-19T05:08:15.136Z,71.07
2022-12-19T05:13:19.902Z,68.38
2022-12-19T05:18:24.848Z,66.60
2022-12-19T05:23:32.236Z,62.67
2022-12-19T05:28:37.174Z,66.85
2022-12-19T05:33:42.457Z,74.22
2022-12-19T05:38:49.809Z,74.63
2022-12-19T05:43:55.625Z,73.75
2022-12-19T05:49:00.267Z,77.63
2022-12-19T05:54:08.326Z,69.68
2022-12-19T05:59:13.239Z,68.38
2022-12-19T06:04:17.964Z,76.60
2022-12-19T06:09:25.528Z,70.72
2022-12-19T06:14:30.210Z,81.72
2022-12-19T06:19:35.089Z,75.70
2022-12-19T06:24:42.461Z,70.82
2022-12-19T06:29:50.205Z,80.82
2022-12-19T06:35:03.961Z,101.30
2022-12-19T06:40:33.827Z,86.18
2022-12-19T06:45:38.537Z,74.20
2022-12-19T06:50:43.336Z,128.60
2022-12-19T06:55:57.789Z,105.82
2022-12-19T07:01:02.649Z,85.80
2022-12-19T07:06:07.994Z,64.82
2022-12-19T07:11:16.015Z,66.55
2022-12-19T07:16:20.723Z,60.10
2022-12-19T07:21:25.609Z,68.80
2022-12-19T07:26:33.022Z,110.35
2022-12-19T07:31:37.931Z,101.00
2022-12-19T07:36:42.770Z,100.32
2022-12-19T07:41:50.332Z,89.93
2022-12-19T07:46:55.028Z,88.60
2022-12-19T07:51:59.957Z,118.00
2022-12-19T07:57:08.194Z,115.40
2022-12-19T08:02:13.007Z,109.20
2022-12-19T08:07:17.805Z,94.68
2022-12-19T08:12:25.210Z,113.78
2022-12-19T08:17:30.052Z,139.45
2022-12-19T08:22:35.048Z,93.10
2022-12-19T08:27:43.215Z,74.50
2022-12-19T08:32:48.361Z,62.97
2022-12-19T08:37:53.111Z,54.33
2022-12-19T08:43:00.616Z,48.20
2022-12-19T08:48:05.413Z,49.17
2022-12-19T08:53:10.149Z,48.80
2022-12-19T08:58:17.781Z,48.97
2022-12-19T09:03:22.847Z,69.63
2022-12-19T09:08:29.965Z,81.47
2022-12-19T09:13:38.632Z,85.00
2022-12-19T09:18:48.249Z,67.40
2022-12-19T09:23:54.510Z,70.05
2022-12-19T09:29:02.294Z,67.60
2022-12-19T09:34:07.776Z,67.40
2022-12-19T09:39:13.275Z,61.15
2022-12-19T09:44:28.099Z,51.95
2022-12-19T09:49:36.875Z,59.53
2022-12-19T09:54:49.408Z,57.67
2022-12-19T09:59:58.192Z,61.05
2022-12-19T10:05:26.802Z,58.22
2022-12-19T10:12:34.516Z,60.53
2022-12-19T10:16:06.651Z,54.53
2022-12-19T10:21:12.737Z,61.28
2022-12-19T10:26:21.361Z,60.40
2022-12-19T10:31:33.209Z,56.75
2022-12-19T10:37:12.987Z,55.45
2022-12-19T10:42:14.150Z,53.40
2022-12-19T10:47:21.510Z,50.53
2022-12-19T10:52:40.958Z,48.10
2022-12-19T10:57:45.649Z,48.83
2022-12-19T11:02:54.087Z,51.28
2022-12-19T11:08:06.887Z,48.92
2022-12-19T11:18:01.219Z,57.33
2022-12-19T11:28:36.048Z,45.75
2022-12-19T11:29:30.745Z,42.60
2022-12-19T11:35:18.462Z,44.25
2022-12-19T11:40:27.977Z,36.53
2022-12-19T11:45:38.426Z,37.67
2022-12-19T11:50:53.649Z,44.83
2022-12-19T11:56:01.567Z,52.70
2022-12-19T12:01:09.974Z,54.30
2022-12-19T12:06:19.521Z,55.95
2022-12-19T12:16:58.630Z,49.03
2022-12-19T12:30:56.259Z,51.33
2022-12-19T12:31:09.793Z,53.10
2022-12-19T12:32:02.765Z,48.72
2022-12-19T12:35:56.481Z,53.17
2022-12-19T12:39:18.857Z,49.22
2022-12-19T12:44:30.685Z,48.05
2022-12-19T12:49:41.224Z,51.75
2022-12-19T12:54:52.105Z,45.08
2022-12-19T13:00:16.979Z,51.13
2022-12-19T13:05:28.564Z,52.63
2022-12-19T13:10:36.141Z,55.40
2022-12-19T13:15:42.424Z,55.58
2022-12-19T13:20:48.246Z,54.38
2022-12-19T13:25:57.346Z,58.83
2022-12-19T13:31:22.782Z,54.88
2022-12-19T13:39:48.840Z,60.03
2022-12-19T13:42:30.470Z,58.55
2022-12-19T13:47:41.392Z,70.65
2022-12-19T13:52:50.995Z,62.58
2022-12-19T13:57:59.076Z,58.03
2022-12-19T14:03:04.649Z,58.58
2022-12-19T14:08:10.874Z,59.67
2022-12-19T14:13:55.523Z,66.78
2022-12-19T14:19:00.704Z,49.88
2022-12-19T14:24:12.035Z,58.83
2022-12-19T14:29:45.344Z,58.83
2022-12-19T14:36:08.557Z,59.47
2022-12-19T14:40:21.353Z,48.97
2022-12-19T14:54:09.466Z,52.05
2022-12-19T14:54:37.408Z,52.08
2022-12-19T15:02:04.572Z,57.20
2022-12-19T15:07:12.522Z,52.70
2022-12-19T15:13:46.674Z,48.25
2022-12-19T15:17:58.008Z,42.10
2022-12-19T15:23:04.407Z,60.25
2022-12-19T15:28:13.445Z,66.20
2022-12-19T15:33:20.948Z,58.85
2022-12-19T15:38:25.796Z,58.33
2022-12-19T15:44:02.417Z,61.38
2022-12-19T15:49:00.063Z,74.60
2022-12-19T15:59:37.848Z,63.55
2022-12-19T16:04:46.060Z,48.05
2022-12-19T16:09:51.409Z,52.15
2022-12-19T16:14:58.845Z,48.20
2022-12-19T16:20:09.107Z,45.38
2022-12-19T16:25:15.818Z,51.70
2022-12-19T16:30:22.158Z,60.78
2022-12-19T16:40:55.492Z,48.72
2022-12-19T16:46:01.736Z,32.60
2022-12-19T16:51:13.590Z,30.67
2022-12-19T16:56:23.987Z,28.55
2022-12-19T17:06:36.314Z,34.65
2022-12-19T17:11:41.138Z,24.65
2022-12-19T17:16:46.157Z,26.00
2022-12-19T17:21:54.356Z,35.88
2022-12-19T17:26:59.066Z,29.17
2022-12-19T17:32:03.974Z,22.17
2022-12-19T17:37:13.496Z,24.45
2022-12-19T17:42:19.508Z,25.37
2022-12-19T17:47:24.227Z,25.77
2022-12-19T17:52:32.488Z,26.25
2022-12-19T17:57:37.225Z,25.58
2022-12-19T18:02:42.629Z,26.95
2022-12-19T18:07:50.187Z,31.50
2022-12-19T18:12:55.953Z,33.58
2022-12-19T18:18:00.927Z,38.40
2022-12-19T18:23:13.005Z,37.47
2022-12-19T18:28:18.303Z,33.72
2022-12-19T18:33:24.444Z,35.42
2022-12-19T18:38:31.896Z,28.67
2022-12-19T18:43:36.742Z,33.05
2022-12-19T18:48:41.496Z,56.55
2022-12-19T18:53:52.010Z,26.77
2022-12-19T18:58:56.866Z,30.42
2022-12-19T19:04:02.451Z,32.55
2022-12-19T19:09:15.838Z,35.80
2022-12-19T19:14:55.704Z,30.55
2022-12-19T19:25:43.864Z,24.65
2022-12-19T19:30:48.845Z,22.02
2022-12-19T19:35:55.193Z,27.10
2022-12-19T19:41:02.962Z,23.52
2022-12-19T19:46:07.983Z,24.85
2022-12-19T19:51:13.710Z,34.67
2022-12-19T19:56:21.169Z,30.55
2022-12-19T20:01:25.993Z,26.63
2022-12-19T20:06:30.986Z,29.83
2022-12-19T20:11:38.557Z,23.63
2022-12-19T20:16:43.862Z,40.22
2022-12-19T20:21:48.808Z,44.15
2022-12-19T20:26:56.233Z,42.08
2022-12-19T20:32:01.037Z,40.45
2022-12-19T20:37:05.947Z,54.15
2022-12-19T20:42:13.385Z,84.13
2022-12-19T20:47:18.235Z,35.28
2022-12-19T20:52:22.974Z,26.50
2022-12-19T20:58:33.112Z,26.48
2022-12-19T21:08:34.075Z,20.60
2022-12-19T21:13:41.993Z,25.30
2022-12-19T21:18:48.142Z,22.77
2022-12-19T21:23:57.014Z,23.85
2022-12-19T21:29:10.024Z,25.52
2022-12-19T21:34:15.005Z,22.98
2022-12-19T21:44:56.978Z,24.45
2022-12-19T21:50:01.772Z,25.38
2022-12-19T21:55:07.031Z,29.27
2022-12-19T22:00:16.450Z,23.38
2022-12-19T22:05:23.017Z,29.07
2022-12-19T22:10:27.791Z,22.95
2022-12-19T22:15:35.315Z,27.33
2022-12-19T22:20:43.545Z,27.90
2022-12-19T22:25:48.308Z,27.27
2022-12-19T22:30:55.727Z,26.42
2022-12-19T22:36:00.513Z,24.73
2022-12-19T22:41:06.058Z,27.35
2022-12-19T22:46:17.564Z,27.92
2022-12-19T22:51:22.682Z,23.52
2022-12-19T22:56:28.319Z,27.55
2022-12-19T23:01:37.885Z,21.17
2022-12-19T23:06:42.990Z,22.73
2022-12-19T23:11:49.181Z,25.27
2022-12-19T23:16:56.570Z,22.23
2022-12-19T23:22:01.366Z,19.75
2022-12-19T23:27:06.186Z,20.90
2022-12-19T23:32:13.763Z,26.77
2022-12-19T23:37:18.627Z,19.92
2022-12-19T23:42:23.504Z,23.15
2022-12-19T23:47:30.894Z,24.23
2022-12-19T23:52:35.648Z,27.00
2022-12-19T23:57:40.417Z,32.67
